createdAt,value
2022-07-28T00:02:06.149Z,100100.06
2022-07-28T00:04:35.230Z,100091.28
2022-07-28T00:07:05.059Z,100087.59
2022-07-28T00:09:33.220Z,100091.28
2022-07-28T00:12:01.356Z,100093.97
2022-07-28T00:14:30.890Z,100091.41
2022-07-28T00:16:59.770Z,100094.97
2022-07-28T00:19:28.020Z,100094.13
2022-07-28T00:21:56.291Z,100084.19
2022-07-28T00:24:25.841Z,100087.44
2022-07-28T00:26:54.004Z,100084.75
2022-07-28T00:29:22.096Z,100085.59
2022-07-28T00:31:50.335Z,100079.38
2022-07-28T00:34:18.726Z,100069.28
2022-07-28T00:36:46.927Z,100068.59
2022-07-28T00:39:15.669Z,100067.44
2022-07-28T00:41:45.399Z,100067.72
2022-07-28T00:44:14.094Z,100065.59
2022-07-28T00:46:42.552Z,100066.16
2022-07-28T00:49:10.865Z,100063.63
2022-07-28T00:51:40.947Z,100067.16
2022-07-28T00:54:09.361Z,100061.78
2022-07-28T00:56:37.543Z,100060.34
2022-07-28T00:59:07.229Z,100058.78
2022-07-28T01:01:35.552Z,100053.81
2022-07-28T01:04:04.660Z,100053.66
2022-07-28T01:06:56.158Z,100051.38
2022-07-28T01:09:38.894Z,100064.16
2022-07-28T01:12:15.693Z,100064.44
2022-07-28T01:14:50.413Z,100068.50
2022-07-28T01:17:27.555Z,100067.09
2022-07-28T01:20:06.522Z,100073.75
2022-07-28T01:22:52.644Z,100065.06
2022-07-28T01:25:28.187Z,100063.66
2022-07-28T01:28:08.079Z,100072.00
2022-07-28T01:30:42.356Z,100078.75
2022-07-28T01:33:21.799Z,100071.53
2022-07-28T01:35:58.552Z,100069.38
2022-07-28T01:38:28.331Z,100073.75
2022-07-28T01:40:58.034Z,100073.91
2022-07-28T01:43:29.917Z,100077.00
2022-07-28T01:46:00.981Z,100072.16
2022-07-28T01:48:30.882Z,100080.50
2022-07-28T01:50:59.658Z,100074.41
2022-07-28T01:53:32.341Z,100074.78
2022-07-28T01:56:06.840Z,100073.78
2022-07-28T01:58:36.560Z,100072.22
2022-07-28T02:01:07.432Z,100069.53
2022-07-28T02:03:36.553Z,100063.28
2022-07-28T02:06:07.415Z,100057.34
2022-07-28T02:08:39.555Z,100049.53
2022-07-28T02:11:25.608Z,100059.69
2022-07-28T02:13:56.502Z,100045.53
2022-07-28T02:16:27.581Z,100059.97
2022-07-28T02:18:58.162Z,100058.41
2022-07-28T02:21:27.307Z,100058.66
2022-07-28T02:23:56.239Z,100065.03
2022-07-28T02:26:28.924Z,100059.31
2022-07-28T02:29:01.280Z,100065.56
2022-07-28T02:31:40.531Z,100065.09
2022-07-28T02:34:14.157Z,100060.38
2022-07-28T02:36:52.249Z,100062.84
2022-07-28T02:39:26.351Z,100062.97
2022-07-28T02:42:02.704Z,100068.50
2022-07-28T02:44:36.947Z,100072.06
2022-07-28T02:47:10.621Z,100069.50
2022-07-28T02:49:40.991Z,100072.81
2022-07-28T02:52:11.329Z,100073.03
2022-07-28T02:54:42.213Z,100071.81
2022-07-28T02:57:13.564Z,100069.81
2022-07-28T02:59:43.917Z,100079.59
2022-07-28T03:02:14.462Z,100077.91
2022-07-28T03:04:58.880Z,100087.66
2022-07-28T03:07:28.455Z,100079.88
2022-07-28T03:09:56.992Z,100085.50
2022-07-28T03:12:25.172Z,100090.72
2022-07-28T03:14:53.409Z,100093.56
2022-07-28T03:17:23.614Z,100103.34
2022-07-28T03:19:51.999Z,100097.88
2022-07-28T03:22:20.376Z,100100.03
2022-07-28T03:24:51.997Z,100096.75
2022-07-28T03:27:26.226Z,100087.59
2022-07-28T03:30:03.660Z,100092.25
2022-07-28T03:32:36.052Z,100092.13
2022-07-28T03:35:04.959Z,100095.72
2022-07-28T03:37:38.829Z,100101.09
2022-07-28T03:40:12.456Z,100105.47
2022-07-28T03:42:42.873Z,100102.31
2022-07-28T03:45:11.964Z,100107.00
2022-07-28T03:47:51.131Z,100107.38
2022-07-28T03:50:19.820Z,100108.72
2022-07-28T03:52:47.925Z,100103.81
2022-07-28T03:55:17.007Z,100113.59
2022-07-28T03:57:45.330Z,100115.03
2022-07-28T04:00:16.118Z,100117.44
2022-07-28T04:02:46.335Z,100121.75
2022-07-28T04:05:16.484Z,100124.53
2022-07-28T04:07:46.139Z,100116.00
2022-07-28T04:10:16.089Z,100117.44
2022-07-28T04:12:49.115Z,100118.78
2022-07-28T04:15:18.492Z,100119.38
2022-07-28T04:17:49.321Z,100119.72
2022-07-28T04:20:18.363Z,100112.34
2022-07-28T04:22:47.326Z,100116.34
2022-07-28T04:25:20.694Z,100123.28
2022-07-28T04:27:49.165Z,100132.84
2022-07-28T04:30:18.943Z,100134.00
2022-07-28T04:32:50.569Z,100138.75
2022-07-28T04:35:19.455Z,100139.72
2022-07-28T04:37:49.687Z,100134.91
2022-07-28T04:40:17.905Z,100134.19
2022-07-28T04:42:46.124Z,100131.66
2022-07-28T04:45:14.261Z,100125.00
2022-07-28T04:47:42.379Z,100133.66
2022-07-28T04:50:15.803Z,100138.53
2022-07-28T04:52:49.273Z,100143.28
2022-07-28T04:55:18.393Z,100142.31
2022-07-28T04:57:46.778Z,100136.63
2022-07-28T05:00:16.036Z,100144.72
2022-07-28T05:02:45.990Z,100144.72
2022-07-28T05:05:15.555Z,100146.28
2022-07-28T05:07:44.290Z,100144.88
2022-07-28T05:10:13.596Z,100153.09
2022-07-28T05:12:41.859Z,100148.19
2022-07-28T05:15:11.099Z,100152.59
2022-07-28T05:17:39.236Z,100153.88
2022-07-28T05:20:08.611Z,100154.50
2022-07-28T05:22:46.720Z,100159.66
2022-07-28T05:25:17.307Z,100157.84
2022-07-28T05:27:46.185Z,100162.56
2022-07-28T05:30:15.766Z,100167.75
2022-07-28T05:32:45.260Z,100162.34
2022-07-28T05:35:13.998Z,100169.34
2022-07-28T05:37:42.172Z,100170.06
2022-07-28T05:40:14.827Z,100172.47
2022-07-28T05:42:43.468Z,100174.88
2022-07-28T05:45:17.080Z,100176.03
2022-07-28T05:47:46.903Z,100180.56
2022-07-28T05:50:15.865Z,100183.72
2022-07-28T05:52:44.192Z,100182.28
2022-07-28T05:55:14.334Z,100179.63
2022-07-28T05:57:43.258Z,100185.03
2022-07-28T06:00:14.507Z,100186.84
2022-07-28T06:02:45.743Z,100185.44
2022-07-28T06:05:14.403Z,100189.41
2022-07-28T06:07:44.379Z,100187.16
2022-07-28T06:10:15.327Z,100195.22
2022-07-28T06:12:44.648Z,100201.06
2022-07-28T06:15:14.710Z,100195.09
2022-07-28T06:17:43.189Z,100207.16
2022-07-28T06:20:13.121Z,100200.88
2022-07-28T06:22:45.067Z,100205.84
2022-07-28T06:25:16.266Z,100205.31
2022-07-28T06:27:46.094Z,100208.72
2022-07-28T06:30:14.903Z,100204.28
2022-07-28T06:32:43.364Z,100213.25
2022-07-28T06:35:12.137Z,100204.28
2022-07-28T06:37:40.324Z,100214.53
2022-07-28T06:40:09.551Z,100212.25
2022-07-28T06:42:39.594Z,100224.34
2022-07-28T06:45:08.877Z,100215.66
2022-07-28T06:47:37.106Z,100222.34
2022-07-28T06:50:26.481Z,100226.06
2022-07-28T06:52:55.947Z,100216.41
2022-07-28T06:55:24.228Z,100213.25
2022-07-28T06:57:54.395Z,100226.34
2022-07-28T07:00:22.743Z,100224.19
2022-07-28T07:02:50.955Z,100221.06
2022-07-28T07:05:19.274Z,100223.19
2022-07-28T07:07:47.497Z,100222.91
2022-07-28T07:10:16.213Z,100226.84
2022-07-28T07:12:44.437Z,100226.50
2022-07-28T07:15:14.107Z,100229.34
2022-07-28T07:17:42.597Z,100231.78
2022-07-28T07:20:13.493Z,100223.13
2022-07-28T07:22:46.182Z,100228.00
2022-07-28T07:25:16.429Z,100225.97
2022-07-28T07:27:45.016Z,100225.66
2022-07-28T07:30:16.370Z,100230.22
2022-07-28T07:32:44.905Z,100232.31
2022-07-28T07:35:13.498Z,100230.72
2022-07-28T07:37:42.305Z,100226.56
2022-07-28T07:40:11.789Z,100230.78
2022-07-28T07:42:40.155Z,100227.31
2022-07-28T07:45:09.180Z,100230.50
2022-07-28T07:47:38.783Z,100231.50
2022-07-28T07:50:08.120Z,100230.88
2022-07-28T07:52:36.333Z,100225.47
2022-07-28T07:55:04.917Z,100226.56
2022-07-28T07:57:33.692Z,100225.94
2022-07-28T08:00:02.125Z,100230.44
2022-07-28T08:02:32.335Z,100222.56
2022-07-28T08:05:02.073Z,100232.53
2022-07-28T08:07:30.259Z,100239.06
2022-07-28T08:09:58.451Z,100231.78
2022-07-28T08:12:26.538Z,100223.81
2022-07-28T08:14:54.849Z,100228.53
2022-07-28T08:17:25.820Z,100220.84
2022-07-28T08:19:54.465Z,100228.81
2022-07-28T08:22:24.615Z,100229.56
2022-07-28T08:24:52.948Z,100228.34
2022-07-28T08:27:21.143Z,100225.47
2022-07-28T08:29:49.318Z,100222.91
2022-07-28T08:32:17.538Z,100226.88
2022-07-28T08:34:45.993Z,100225.13
2022-07-28T08:37:14.105Z,100224.50
2022-07-28T08:39:43.569Z,100220.56
2022-07-28T08:42:18.395Z,100227.63
2022-07-28T08:44:52.965Z,100232.38
2022-07-28T08:47:21.566Z,100224.97
2022-07-28T08:49:53.042Z,100231.56
2022-07-28T08:52:22.722Z,100231.84
2022-07-28T08:54:54.258Z,100227.41
2022-07-28T08:57:27.529Z,100224.97
2022-07-28T08:59:57.071Z,100220.44
2022-07-28T09:02:27.046Z,100220.78
2022-07-28T09:04:56.397Z,100223.56
2022-07-28T09:07:25.346Z,100218.84
2022-07-28T09:09:57.459Z,100223.69
2022-07-28T09:12:31.212Z,100225.91
2022-07-28T09:15:02.906Z,100213.53
2022-07-28T09:17:31.404Z,100224.22
2022-07-28T09:19:59.568Z,100218.66
2022-07-28T09:22:28.156Z,100217.31
2022-07-28T09:24:57.836Z,100216.34
2022-07-28T09:27:25.981Z,100213.16
2022-07-28T09:30:00.457Z,100206.84
2022-07-28T09:32:28.704Z,100200.78
2022-07-28T09:34:56.870Z,100200.81
2022-07-28T09:37:27.955Z,100202.88
2022-07-28T09:39:59.424Z,100202.00
2022-07-28T09:42:45.689Z,100211.69
2022-07-28T09:45:22.843Z,100199.63
2022-07-28T09:48:11.225Z,100198.44
2022-07-28T09:50:40.745Z,100194.41
2022-07-28T09:53:27.214Z,100195.25
2022-07-28T09:56:00.161Z,100197.97
2022-07-28T09:58:29.656Z,100195.03
2022-07-28T10:01:07.612Z,100188.56
2022-07-28T10:03:36.864Z,100187.91
2022-07-28T10:06:09.409Z,100182.09
2022-07-28T10:08:45.518Z,100179.53
2022-07-28T10:11:17.134Z,100190.75
2022-07-28T10:14:05.006Z,100191.25
2022-07-28T10:16:34.943Z,100182.38
2022-07-28T10:19:05.722Z,100183.72
2022-07-28T10:21:40.401Z,100176.41
2022-07-28T10:24:10.307Z,100174.16
2022-07-28T10:26:45.112Z,100176.47
2022-07-28T10:29:16.427Z,100170.78
2022-07-28T10:31:49.939Z,100173.25
2022-07-28T10:34:25.050Z,100170.31
2022-07-28T10:36:55.711Z,100164.16
2022-07-28T10:39:26.647Z,100159.88
2022-07-28T10:41:57.690Z,100166.97
2022-07-28T10:44:26.077Z,100158.97
2022-07-28T10:46:55.734Z,100151.22
2022-07-28T10:49:27.587Z,100160.88
2022-07-28T10:52:08.768Z,100162.22
2022-07-28T10:54:56.469Z,100140.06
2022-07-28T10:57:27.033Z,100154.31
2022-07-28T11:00:12.800Z,100149.34
2022-07-28T11:02:50.461Z,100149.34
2022-07-28T11:05:36.465Z,100144.72
2022-07-28T11:08:07.611Z,100144.53
2022-07-28T11:10:47.617Z,100142.00
2022-07-28T11:13:35.962Z,100139.78
2022-07-28T11:16:22.006Z,100136.28
2022-07-28T11:19:36.073Z,100136.97
2022-07-28T11:22:29.414Z,100145.69
2022-07-28T11:25:19.208Z,100145.69
2022-07-28T11:28:06.179Z,100143.88
2022-07-28T11:31:00.826Z,100146.06
2022-07-28T11:33:55.443Z,100134.16
2022-07-28T11:36:23.534Z,100140.31
2022-07-28T11:39:24.684Z,100137.91
2022-07-28T11:41:53.242Z,100134.59
2022-07-28T11:44:28.316Z,100135.03
2022-07-28T11:47:17.307Z,100130.44
2022-07-28T11:49:46.122Z,100121.25
2022-07-28T11:52:21.505Z,100120.31
2022-07-28T11:54:56.067Z,100122.75
2022-07-28T11:57:29.215Z,100118.09
2022-07-28T12:00:01.716Z,100113.34
2022-07-28T12:02:36.524Z,100121.44
2022-07-28T12:05:14.207Z,100114.94
2022-07-28T12:07:48.498Z,100116.44
2022-07-28T12:13:28.855Z,100114.50
2022-07-28T12:15:57.311Z,100112.75
2022-07-28T12:18:27.152Z,100101.06
2022-07-28T12:21:03.043Z,100115.63
2022-07-28T12:23:38.935Z,100110.88
2022-07-28T12:26:31.342Z,100109.75
2022-07-28T12:29:01.073Z,100100.59
2022-07-28T12:31:34.142Z,100102.72
2022-07-28T12:34:06.311Z,100094.09
2022-07-28T12:36:35.615Z,100102.31
2022-07-28T12:39:10.910Z,100106.25
2022-07-28T12:41:41.017Z,100105.84
2022-07-28T12:44:09.200Z,100098.94
2022-07-28T12:46:40.190Z,100098.72
2022-07-28T12:49:21.828Z,100087.72
2022-07-28T12:51:50.071Z,100102.31
2022-07-28T12:54:18.398Z,100096.78
2022-07-28T12:56:50.506Z,100096.91
2022-07-28T12:59:19.913Z,100095.56
2022-07-28T13:01:52.885Z,100090.88
2022-07-28T13:04:41.711Z,100098.31
2022-07-28T13:07:13.179Z,100096.31
2022-07-28T13:09:49.043Z,100091.41
2022-07-28T13:12:24.911Z,100092.00
2022-07-28T13:14:57.931Z,100087.19
2022-07-28T13:17:31.800Z,100088.53
2022-07-28T13:20:14.964Z,100085.34
2022-07-28T13:22:46.924Z,100087.16
2022-07-28T13:25:15.551Z,100085.53
2022-07-28T13:27:49.542Z,100102.41
2022-07-28T13:30:20.532Z,100085.56
2022-07-28T13:32:48.806Z,100080.31
2022-07-28T13:35:19.206Z,100080.94
2022-07-28T13:37:49.301Z,100083.16
2022-07-28T13:40:17.451Z,100077.13
2022-07-28T13:42:52.848Z,100072.84
2022-07-28T13:45:24.588Z,100069.84
2022-07-28T13:47:53.493Z,100073.91
2022-07-28T13:50:23.464Z,100076.81
2022-07-28T13:52:52.421Z,100068.91
2022-07-28T13:55:23.068Z,100069.81
2022-07-28T13:57:51.747Z,100066.38
2022-07-28T14:00:22.809Z,100063.00
2022-07-28T14:02:53.557Z,100057.50
2022-07-28T14:05:23.245Z,100058.13
2022-07-28T14:07:51.655Z,100055.88
2022-07-28T14:10:19.911Z,100061.03
2022-07-28T14:12:54.899Z,100062.44
2022-07-28T14:15:23.194Z,100061.72
2022-07-28T14:17:51.353Z,100058.28
2022-07-28T14:20:19.618Z,100058.97
2022-07-28T14:22:49.158Z,100057.00
2022-07-28T14:25:19.450Z,100055.25
2022-07-28T14:27:51.749Z,100056.28
2022-07-28T14:30:25.903Z,100053.94
2022-07-28T14:32:54.952Z,100051.88
2022-07-28T14:35:24.057Z,100055.66
2022-07-28T14:38:41.974Z,100055.66
2022-07-28T14:40:43.988Z,100047.06
2022-07-28T14:43:15.127Z,100038.13
2022-07-28T14:46:01.456Z,100041.44
2022-07-28T14:48:34.933Z,100034.38
2022-07-28T14:51:03.228Z,100035.59
2022-07-28T14:53:32.932Z,100026.94
2022-07-28T14:56:06.303Z,100033.88
2022-07-28T14:58:34.407Z,100036.56
2022-07-28T15:01:02.552Z,100037.19
2022-07-28T15:03:36.075Z,100041.22
2022-07-28T15:06:05.031Z,100033.38
2022-07-28T15:08:35.973Z,100033.09
2022-07-28T15:11:04.196Z,100027.34
2022-07-28T15:13:32.467Z,100034.22
2022-07-28T15:16:01.957Z,100032.31
2022-07-28T15:18:30.198Z,100024.22
2022-07-28T15:21:00.616Z,100031.88
2022-07-28T15:23:28.794Z,100026.75
2022-07-28T15:25:58.387Z,100030.06
2022-07-28T15:28:26.496Z,100029.16
2022-07-28T15:30:54.824Z,100028.66
2022-07-28T15:33:25.465Z,100033.88
2022-07-28T15:35:58.973Z,100031.47
2022-07-28T15:38:29.181Z,100024.56
2022-07-28T15:40:59.861Z,100022.78
2022-07-28T15:43:28.136Z,100029.63
2022-07-28T15:45:57.505Z,100027.50
2022-07-28T15:48:25.756Z,100022.25
2022-07-28T15:50:53.908Z,100020.75
2022-07-28T15:53:22.101Z,100018.72
2022-07-28T15:55:51.578Z,100010.84
2022-07-28T15:58:22.301Z,100015.09
2022-07-28T16:00:51.307Z,100021.06
2022-07-28T16:03:24.018Z,100016.31
2022-07-28T16:05:52.408Z,100021.69
2022-07-28T16:08:23.088Z,100021.00
2022-07-28T16:10:52.663Z,100015.97
2022-07-28T16:13:35.616Z,100009.22
2022-07-28T16:16:07.442Z,100010.06
2022-07-28T16:18:36.772Z,100010.97
2022-07-28T16:21:08.173Z,100009.28
2022-07-28T16:23:36.586Z,100004.66
2022-07-28T16:26:08.001Z,100009.94
2022-07-28T16:28:37.858Z,100015.59
2022-07-28T16:31:06.519Z,100011.41
2022-07-28T16:33:35.440Z,100008.66
2022-07-28T16:36:03.957Z,100005.28
2022-07-28T16:38:32.181Z,100009.19
2022-07-28T16:41:00.391Z,100014.03
2022-07-28T16:43:28.546Z,100010.16
2022-07-28T16:45:58.274Z,100006.34
2022-07-28T16:48:26.452Z,100011.84
2022-07-28T16:50:54.838Z,100013.00
2022-07-28T16:53:23.021Z,100009.09
2022-07-28T16:55:51.543Z,100012.44
2022-07-28T16:58:20.142Z,100016.78
2022-07-28T17:00:48.321Z,100015.09
2022-07-28T17:03:18.186Z,100010.78
2022-07-28T17:05:46.660Z,100012.84
2022-07-28T17:08:14.906Z,100012.00
2022-07-28T17:10:43.140Z,100013.00
2022-07-28T17:13:12.083Z,100014.56
2022-07-28T17:15:41.737Z,100011.00
2022-07-28T17:18:12.371Z,100012.66
2022-07-28T17:20:42.970Z,100015.78
2022-07-28T17:23:11.466Z,100018.75
2022-07-28T17:26:45.634Z,100017.31
2022-07-28T17:28:30.100Z,100016.22
2022-07-28T17:30:58.417Z,100015.31
2022-07-28T17:33:27.268Z,100007.97
2022-07-28T17:35:57.000Z,100024.56
2022-07-28T17:38:32.567Z,100019.63
2022-07-28T17:41:04.060Z,100021.28
2022-07-28T17:43:32.893Z,100014.72
2022-07-28T17:46:02.968Z,100021.59
2022-07-28T17:48:38.598Z,100021.59
2022-07-28T17:51:09.221Z,100021.16
2022-07-28T17:53:39.524Z,100026.44
2022-07-28T17:56:09.200Z,100030.00
2022-07-28T17:58:38.716Z,100024.00
2022-07-28T18:01:11.998Z,100023.94
2022-07-28T18:03:56.459Z,100033.06
2022-07-28T18:06:35.483Z,100027.16
2022-07-28T18:09:07.866Z,100028.75
2022-07-28T18:11:56.783Z,100029.50
2022-07-28T18:14:27.503Z,100024.81
2022-07-28T18:16:55.978Z,100035.72
2022-07-28T18:19:24.126Z,100033.56
2022-07-28T18:21:57.404Z,100035.25
2022-07-28T18:24:28.967Z,100037.59
2022-07-28T18:26:57.491Z,100045.53
2022-07-28T18:29:26.224Z,100049.78
2022-07-28T18:32:08.559Z,100050.34
2022-07-28T18:34:41.707Z,100051.66
2022-07-28T18:37:13.288Z,100049.78
2022-07-28T18:39:41.526Z,100050.22
2022-07-28T18:42:12.948Z,100054.94
2022-07-28T18:44:41.505Z,100055.84
2022-07-28T18:47:09.698Z,100056.94
2022-07-28T18:49:40.675Z,100059.56
2022-07-28T18:52:13.525Z,100071.41
2022-07-28T18:54:41.719Z,100077.44
2022-07-28T18:57:10.095Z,100076.63
2022-07-28T18:59:43.991Z,100074.13
2022-07-28T19:02:17.725Z,100074.97
2022-07-28T19:04:47.281Z,100074.69
2022-07-28T19:07:17.204Z,100082.75
2022-07-28T19:09:45.632Z,100079.38
2022-07-28T19:12:13.807Z,100086.88
2022-07-28T19:14:42.458Z,100089.47
2022-07-28T19:17:11.360Z,100087.63
2022-07-28T19:19:41.812Z,100087.75
2022-07-28T19:22:10.213Z,100088.66
2022-07-28T19:24:39.989Z,100079.31
2022-07-28T19:27:08.233Z,100084.28
2022-07-28T19:29:36.777Z,100081.91
2022-07-28T19:32:06.550Z,100076.97
2022-07-28T19:34:35.445Z,100078.72
2022-07-28T19:37:03.880Z,100082.78
2022-07-28T19:39:34.472Z,100089.75
2022-07-28T19:42:11.260Z,100088.41
2022-07-28T19:44:39.668Z,100083.16
2022-07-28T19:47:09.662Z,100094.88
2022-07-28T19:49:39.538Z,100091.47
2022-07-28T19:52:08.767Z,100091.97
2022-07-28T19:54:37.066Z,100103.69
2022-07-28T19:57:12.141Z,100104.16
2022-07-28T19:59:40.985Z,100102.50
2022-07-28T20:02:09.551Z,100097.03
2022-07-28T20:04:37.898Z,100104.84
2022-07-28T20:07:08.342Z,100109.25
2022-07-28T20:09:36.474Z,100105.88
2022-07-28T20:12:08.818Z,100115.84
2022-07-28T20:14:39.795Z,100108.06
2022-07-28T20:17:20.092Z,100115.84
2022-07-28T20:20:02.430Z,100113.13
2022-07-28T20:22:30.931Z,100118.19
2022-07-28T20:24:59.138Z,100112.22
2022-07-28T20:27:28.752Z,100113.06
2022-07-28T20:29:59.336Z,100110.84
2022-07-28T20:32:30.425Z,100123.03
2022-07-28T20:34:58.834Z,100119.47
2022-07-28T20:37:34.115Z,100122.69
2022-07-28T20:40:06.901Z,100124.88
2022-07-28T20:42:37.095Z,100127.91
2022-07-28T20:45:06.119Z,100128.44
2022-07-28T20:47:35.042Z,100127.75
2022-07-28T20:50:05.312Z,100132.31
2022-07-28T20:52:34.939Z,100137.22
2022-07-28T20:55:04.572Z,100130.44
2022-07-28T20:57:32.839Z,100134.63
2022-07-28T21:00:03.879Z,100128.97
2022-07-28T21:02:32.179Z,100135.56
2022-07-28T21:05:00.411Z,100133.53
2022-07-28T21:08:04.698Z,100130.31
2022-07-28T21:10:16.805Z,100131.50
2022-07-28T21:12:44.927Z,100130.44
2022-07-28T21:15:14.792Z,100129.97
2022-07-28T21:17:43.086Z,100137.59
2022-07-28T21:20:12.167Z,100134.66
2022-07-28T21:22:40.447Z,100143.97
2022-07-28T21:25:09.395Z,100145.97
2022-07-28T21:27:51.350Z,100144.44
2022-07-28T21:30:27.931Z,100145.78
2022-07-28T21:32:56.483Z,100153.69
2022-07-28T21:35:24.953Z,100153.47
2022-07-28T21:37:53.238Z,100153.25
2022-07-28T21:40:21.438Z,100169.28
2022-07-28T21:42:49.600Z,100165.38
2022-07-28T21:45:18.005Z,100160.59
2022-07-28T21:47:47.530Z,100164.59
2022-07-28T21:50:15.959Z,100164.56
2022-07-28T21:52:44.215Z,100174.97
2022-07-28T21:55:13.005Z,100163.19
2022-07-28T21:57:41.218Z,100174.50
2022-07-28T22:00:12.133Z,100172.44
2022-07-28T22:02:41.196Z,100173.44
2022-07-28T22:05:12.118Z,100178.84
2022-07-28T22:07:40.402Z,100188.25
2022-07-28T22:10:09.225Z,100181.38
2022-07-28T22:12:37.338Z,100199.31
2022-07-28T22:15:06.270Z,100200.31
2022-07-28T22:17:34.378Z,100199.63
2022-07-28T22:20:02.526Z,100197.59
2022-07-28T22:22:32.009Z,100197.06
2022-07-28T22:25:00.164Z,100197.53
2022-07-28T22:27:28.435Z,100197.44
2022-07-28T22:29:56.712Z,100197.63
2022-07-28T22:32:28.714Z,100200.06
2022-07-28T22:34:57.763Z,100201.97
2022-07-28T22:37:25.971Z,100202.56
2022-07-28T22:39:56.030Z,100194.34
2022-07-28T22:42:24.275Z,100198.34
2022-07-28T22:44:52.414Z,100198.34
2022-07-28T22:47:20.655Z,100202.66
2022-07-28T22:49:49.064Z,100197.41
2022-07-28T22:52:17.249Z,100191.03
2022-07-28T22:54:45.318Z,100188.38
2022-07-28T22:57:14.811Z,100185.81
2022-07-28T22:59:45.072Z,100192.06
2022-07-28T23:02:17.012Z,100189.78
2022-07-28T23:04:51.165Z,100186.53
2022-07-28T23:07:20.055Z,100188.78
2022-07-28T23:10:09.410Z,100181.53
2022-07-28T23:12:39.536Z,100180.41
2022-07-28T23:15:08.578Z,100187.09
2022-07-28T23:17:37.337Z,100191.91
2022-07-28T23:20:07.103Z,100191.31
2022-07-28T23:22:35.331Z,100194.41
2022-07-28T23:25:04.159Z,100197.66
2022-07-28T23:27:32.537Z,100193.53
2022-07-28T23:30:02.117Z,100194.69
2022-07-28T23:32:30.284Z,100200.09
2022-07-28T23:34:58.516Z,100195.56
2022-07-28T23:37:26.604Z,100190.88
2022-07-28T23:39:54.748Z,100198.28
2022-07-28T23:42:23.263Z,100197.56
2022-07-28T23:44:51.387Z,100198.44
2022-07-28T23:47:20.917Z,100195.63
2022-07-28T23:49:49.090Z,100203.16
2022-07-28T23:52:17.242Z,100199.31
2022-07-28T23:54:45.363Z,100201.59
2022-07-28T23:57:13.539Z,100198.91
2022-07-28T23:59:41.659Z,100200.75
